sensor_id;sensor_type;location;lat;lon;timestamp;temperature;humidity
3001;DHT22;1510;51.072;6.678;2023-02-22T00:00:56;6.60;99.90
3001;DHT22;1510;51.072;6.678;2023-02-22T00:03:29;6.60;99.90
3001;DHT22;1510;51.072;6.678;2023-02-22T00:05:58;6.50;99.90
3001;DHT22;1510;51.072;6.678;2023-02-22T00:08:29;6.40;99.90
3001;DHT22;1510;51.072;6.678;2023-02-22T00:10:56;6.50;99.90
3001;DHT22;1510;51.072;6.678;2023-02-22T00:13:23;6.40;99.90
3001;DHT22;1510;51.072;6.678;2023-02-22T00:15:49;6.50;99.90
3001;DHT22;1510;51.072;6.678;2023-02-22T00:18:17;6.40;99.90
3001;DHT22;1510;51.072;6.678;2023-02-22T00:20:45;6.40;99.90
3001;DHT22;1510;51.072;6.678;2023-02-22T00:23:15;6.30;99.90
3001;DHT22;1510;51.072;6.678;2023-02-22T00:25:43;6.30;99.90
3001;DHT22;1510;51.072;6.678;2023-02-22T00:28:10;6.30;99.90
3001;DHT22;1510;51.072;6.678;2023-02-22T00:30:40;6.30;99.90
3001;DHT22;1510;51.072;6.678;2023-02-22T00:33:08;6.20;99.90
3001;DHT22;1510;51.072;6.678;2023-02-22T00:35:35;6.30;99.90
3001;DHT22;1510;51.072;6.678;2023-02-22T00:38:04;6.20;99.90
3001;DHT22;1510;51.072;6.678;2023-02-22T00:40:32;6.20;99.90
3001;DHT22;1510;51.072;6.678;2023-02-22T00:43:00;6.20;99.90
3001;DHT22;1510;51.072;6.678;2023-02-22T00:45:29;6.20;99.90
3001;DHT22;1510;51.072;6.678;2023-02-22T00:47:57;6.20;99.90
3001;DHT22;1510;51.072;6.678;2023-02-22T00:50:25;6.20;99.90
3001;DHT22;1510;51.072;6.678;2023-02-22T00:52:53;6.20;99.90
3001;DHT22;1510;51.072;6.678;2023-02-22T00:55:24;6.20;99.90
3001;DHT22;1510;51.072;6.678;2023-02-22T00:57:51;6.20;99.90
3001;DHT22;1510;51.072;6.678;2023-02-22T01:00:21;6.20;99.90
3001;DHT22;1510;51.072;6.678;2023-02-22T01:02:48;6.20;99.90
3001;DHT22;1510;51.072;6.678;2023-02-22T01:05:17;6.20;99.90
3001;DHT22;1510;51.072;6.678;2023-02-22T01:07:45;6.20;99.90
3001;DHT22;1510;51.072;6.678;2023-02-22T01:10:12;6.20;99.90
3001;DHT22;1510;51.072;6.678;2023-02-22T01:12:41;6.20;99.90
3001;DHT22;1510;51.072;6.678;2023-02-22T01:15:09;6.20;99.90
3001;DHT22;1510;51.072;6.678;2023-02-22T01:17:37;6.20;99.90
3001;DHT22;1510;51.072;6.678;2023-02-22T01:20:06;6.10;99.90
3001;DHT22;1510;51.072;6.678;2023-02-22T01:22:37;6.10;99.90
3001;DHT22;1510;51.072;6.678;2023-02-22T01:25:04;6.20;99.90
3001;DHT22;1510;51.072;6.678;2023-02-22T01:27:32;6.10;99.90
3001;DHT22;1510;51.072;6.678;2023-02-22T01:30:00;6.10;99.90
3001;DHT22;1510;51.072;6.678;2023-02-22T01:32:33;6.10;99.90
3001;DHT22;1510;51.072;6.678;2023-02-22T01:35:00;6.10;99.90
3001;DHT22;1510;51.072;6.678;2023-02-22T01:37:29;6.10;99.90
3001;DHT22;1510;51.072;6.678;2023-02-22T01:39:56;6.10;99.90
3001;DHT22;1510;51.072;6.678;2023-02-22T01:42:22;6.10;99.90
3001;DHT22;1510;51.072;6.678;2023-02-22T01:47:51;6.10;99.90
3001;DHT22;1510;51.072;6.678;2023-02-22T01:50:17;6.10;99.90
3001;DHT22;1510;51.072;6.678;2023-02-22T01:52:44;6.10;99.90
3001;DHT22;1510;51.072;6.678;2023-02-22T01:55:11;6.10;99.90
3001;DHT22;1510;51.072;6.678;2023-02-22T01:57:38;6.00;99.90
3001;DHT22;1510;51.072;6.678;2023-02-22T02:00:07;6.10;99.90
3001;DHT22;1510;51.072;6.678;2023-02-22T02:02:36;6.10;99.90
3001;DHT22;1510;51.072;6.678;2023-02-22T02:05:07;6.10;99.90
3001;DHT22;1510;51.072;6.678;2023-02-22T02:07:35;6.10;99.90
3001;DHT22;1510;51.072;6.678;2023-02-22T02:10:05;6.00;99.90
3001;DHT22;1510;51.072;6.678;2023-02-22T02:12:35;6.10;99.90
3001;DHT22;1510;51.072;6.678;2023-02-22T02:15:20;6.10;99.90
3001;DHT22;1510;51.072;6.678;2023-02-22T02:17:49;6.10;99.90
3001;DHT22;1510;51.072;6.678;2023-02-22T02:20:22;6.10;99.90
3001;DHT22;1510;51.072;6.678;2023-02-22T02:22:55;6.10;99.90
3001;DHT22;1510;51.072;6.678;2023-02-22T02:31:57;6.10;99.90
3001;DHT22;1510;51.072;6.678;2023-02-22T02:34:31;6.10;99.90
3001;DHT22;1510;51.072;6.678;2023-02-22T02:37:02;6.10;99.90
3001;DHT22;1510;51.072;6.678;2023-02-22T02:39:37;6.10;99.90
3001;DHT22;1510;51.072;6.678;2023-02-22T02:42:07;6.00;99.90
3001;DHT22;1510;51.072;6.678;2023-02-22T02:44:38;6.10;99.90
3001;DHT22;1510;51.072;6.678;2023-02-22T02:47:11;6.10;99.90
3001;DHT22;1510;51.072;6.678;2023-02-22T02:49:43;6.20;99.90
3001;DHT22;1510;51.072;6.678;2023-02-22T02:52:12;6.20;99.90
3001;DHT22;1510;51.072;6.678;2023-02-22T02:54:42;6.20;99.90
3001;DHT22;1510;51.072;6.678;2023-02-22T02:57:10;6.20;99.90
3001;DHT22;1510;51.072;6.678;2023-02-22T02:59:37;6.20;99.90
3001;DHT22;1510;51.072;6.678;2023-02-22T03:02:19;6.20;99.90
3001;DHT22;1510;51.072;6.678;2023-02-22T03:05:02;6.10;99.90
3001;DHT22;1510;51.072;6.678;2023-02-22T03:07:44;6.10;99.90
3001;DHT22;1510;51.072;6.678;2023-02-22T03:10:23;6.10;99.90
3001;DHT22;1510;51.072;6.678;2023-02-22T03:12:56;6.10;99.90
3001;DHT22;1510;51.072;6.678;2023-02-22T03:15:34;6.10;99.90
3001;DHT22;1510;51.072;6.678;2023-02-22T03:18:08;6.00;99.90
3001;DHT22;1510;51.072;6.678;2023-02-22T03:20:51;6.00;99.90
3001;DHT22;1510;51.072;6.678;2023-02-22T03:23:23;5.90;99.90
3001;DHT22;1510;51.072;6.678;2023-02-22T03:25:57;5.80;99.90
3001;DHT22;1510;51.072;6.678;2023-02-22T03:28:26;5.90;99.90
3001;DHT22;1510;51.072;6.678;2023-02-22T03:30:56;5.90;99.90
3001;DHT22;1510;51.072;6.678;2023-02-22T03:33:29;5.90;99.90
3001;DHT22;1510;51.072;6.678;2023-02-22T03:36:06;6.00;99.90
3001;DHT22;1510;51.072;6.678;2023-02-22T03:38:36;5.90;99.90
3001;DHT22;1510;51.072;6.678;2023-02-22T03:41:07;6.00;99.90
3001;DHT22;1510;51.072;6.678;2023-02-22T03:43:37;6.00;99.90
3001;DHT22;1510;51.072;6.678;2023-02-22T03:46:07;5.90;99.90
3001;DHT22;1510;51.072;6.678;2023-02-22T03:48:40;5.90;99.90
3001;DHT22;1510;51.072;6.678;2023-02-22T03:51:10;5.90;99.90
3001;DHT22;1510;51.072;6.678;2023-02-22T03:53:40;5.90;99.90
3001;DHT22;1510;51.072;6.678;2023-02-22T03:56:08;5.90;99.90
3001;DHT22;1510;51.072;6.678;2023-02-22T03:58:37;5.90;99.90
3001;DHT22;1510;51.072;6.678;2023-02-22T04:01:08;5.80;99.90
3001;DHT22;1510;51.072;6.678;2023-02-22T04:03:36;5.80;99.90
3001;DHT22;1510;51.072;6.678;2023-02-22T04:06:05;5.80;99.90
3001;DHT22;1510;51.072;6.678;2023-02-22T04:08:32;5.80;99.90
3001;DHT22;1510;51.072;6.678;2023-02-22T04:10:58;5.80;99.90
3001;DHT22;1510;51.072;6.678;2023-02-22T04:13:25;5.70;99.90
3001;DHT22;1510;51.072;6.678;2023-02-22T04:15:52;5.70;99.90
3001;DHT22;1510;51.072;6.678;2023-02-22T04:18:19;5.70;99.90
3001;DHT22;1510;51.072;6.678;2023-02-22T04:20:47;5.80;99.90
3001;DHT22;1510;51.072;6.678;2023-02-22T04:23:15;5.70;99.90
3001;DHT22;1510;51.072;6.678;2023-02-22T04:25:42;5.70;99.90
3001;DHT22;1510;51.072;6.678;2023-02-22T04:28:09;5.70;99.90
3001;DHT22;1510;51.072;6.678;2023-02-22T04:30:35;5.60;99.90
3001;DHT22;1510;51.072;6.678;2023-02-22T04:33:02;5.70;99.90
3001;DHT22;1510;51.072;6.678;2023-02-22T04:35:29;5.60;99.90
3001;DHT22;1510;51.072;6.678;2023-02-22T04:37:57;5.60;99.90
3001;DHT22;1510;51.072;6.678;2023-02-22T04:40:24;5.60;99.90
3001;DHT22;1510;51.072;6.678;2023-02-22T04:42:50;5.70;99.90
3001;DHT22;1510;51.072;6.678;2023-02-22T04:45:17;5.60;99.90
3001;DHT22;1510;51.072;6.678;2023-02-22T04:47:44;5.70;99.90
3001;DHT22;1510;51.072;6.678;2023-02-22T04:50:11;5.60;99.90
3001;DHT22;1510;51.072;6.678;2023-02-22T04:52:38;5.60;99.90
3001;DHT22;1510;51.072;6.678;2023-02-22T04:55:07;5.60;99.90
3001;DHT22;1510;51.072;6.678;2023-02-22T04:57:34;5.60;99.90
3001;DHT22;1510;51.072;6.678;2023-02-22T05:00:01;5.60;99.90
3001;DHT22;1510;51.072;6.678;2023-02-22T05:02:28;5.60;99.90
3001;DHT22;1510;51.072;6.678;2023-02-22T05:04:55;5.60;99.90
3001;DHT22;1510;51.072;6.678;2023-02-22T05:07:22;5.60;99.90
3001;DHT22;1510;51.072;6.678;2023-02-22T05:09:49;5.50;99.90
3001;DHT22;1510;51.072;6.678;2023-02-22T05:12:17;5.50;99.90
3001;DHT22;1510;51.072;6.678;2023-02-22T05:14:43;5.50;99.90
3001;DHT22;1510;51.072;6.678;2023-02-22T05:17:10;5.40;99.90
3001;DHT22;1510;51.072;6.678;2023-02-22T05:19:37;5.40;99.90
3001;DHT22;1510;51.072;6.678;2023-02-22T05:22:06;5.40;99.90
3001;DHT22;1510;51.072;6.678;2023-02-22T05:24:33;5.30;99.90
3001;DHT22;1510;51.072;6.678;2023-02-22T05:27:00;5.20;99.90
3001;DHT22;1510;51.072;6.678;2023-02-22T05:29:28;5.30;99.90
3001;DHT22;1510;51.072;6.678;2023-02-22T05:31:55;5.30;99.90
3001;DHT22;1510;51.072;6.678;2023-02-22T05:34:22;5.30;99.90
3001;DHT22;1510;51.072;6.678;2023-02-22T05:36:49;5.30;99.90
3001;DHT22;1510;51.072;6.678;2023-02-22T05:39:16;5.30;99.90
3001;DHT22;1510;51.072;6.678;2023-02-22T05:41:43;5.40;99.90
3001;DHT22;1510;51.072;6.678;2023-02-22T05:44:09;5.30;99.90
3001;DHT22;1510;51.072;6.678;2023-02-22T05:46:38;5.30;99.90
3001;DHT22;1510;51.072;6.678;2023-02-22T05:49:04;5.30;99.90
3001;DHT22;1510;51.072;6.678;2023-02-22T05:51:31;5.30;99.90
3001;DHT22;1510;51.072;6.678;2023-02-22T05:53:58;5.30;99.90
3001;DHT22;1510;51.072;6.678;2023-02-22T05:56:27;5.30;99.90
3001;DHT22;1510;51.072;6.678;2023-02-22T05:58:54;5.30;99.90
3001;DHT22;1510;51.072;6.678;2023-02-22T06:01:22;5.30;99.90
3001;DHT22;1510;51.072;6.678;2023-02-22T06:03:50;5.30;99.90
3001;DHT22;1510;51.072;6.678;2023-02-22T06:06:18;5.30;99.90
3001;DHT22;1510;51.072;6.678;2023-02-22T06:08:45;5.40;99.90
3001;DHT22;1510;51.072;6.678;2023-02-22T06:11:12;5.40;99.90
3001;DHT22;1510;51.072;6.678;2023-02-22T06:13:39;5.40;99.90
3001;DHT22;1510;51.072;6.678;2023-02-22T06:16:06;5.40;99.90
3001;DHT22;1510;51.072;6.678;2023-02-22T06:18:33;5.40;99.90
3001;DHT22;1510;51.072;6.678;2023-02-22T06:21:01;5.40;99.90
3001;DHT22;1510;51.072;6.678;2023-02-22T06:23:28;5.40;99.90
3001;DHT22;1510;51.072;6.678;2023-02-22T06:25:55;5.30;99.90
3001;DHT22;1510;51.072;6.678;2023-02-22T06:28:22;5.40;99.90
3001;DHT22;1510;51.072;6.678;2023-02-22T06:30:49;5.40;99.90
3001;DHT22;1510;51.072;6.678;2023-02-22T06:33:16;5.30;99.90
3001;DHT22;1510;51.072;6.678;2023-02-22T06:35:42;5.30;99.90
3001;DHT22;1510;51.072;6.678;2023-02-22T06:38:11;5.20;99.90
3001;DHT22;1510;51.072;6.678;2023-02-22T06:40:37;5.20;99.90
3001;DHT22;1510;51.072;6.678;2023-02-22T06:43:04;5.30;99.90
3001;DHT22;1510;51.072;6.678;2023-02-22T06:45:31;5.30;99.90
3001;DHT22;1510;51.072;6.678;2023-02-22T06:48:03;5.30;99.90
3001;DHT22;1510;51.072;6.678;2023-02-22T06:50:36;5.30;99.90
3001;DHT22;1510;51.072;6.678;2023-02-22T06:53:04;5.30;99.90
3001;DHT22;1510;51.072;6.678;2023-02-22T06:55:33;5.30;99.90
3001;DHT22;1510;51.072;6.678;2023-02-22T06:58:01;5.40;99.90
3001;DHT22;1510;51.072;6.678;2023-02-22T07:00:30;5.40;99.90
3001;DHT22;1510;51.072;6.678;2023-02-22T07:02:58;5.40;99.90
3001;DHT22;1510;51.072;6.678;2023-02-22T07:05:26;5.40;99.90
3001;DHT22;1510;51.072;6.678;2023-02-22T07:07:55;5.40;99.90
3001;DHT22;1510;51.072;6.678;2023-02-22T07:10:28;5.40;99.90
3001;DHT22;1510;51.072;6.678;2023-02-22T07:12:56;5.40;99.90
3001;DHT22;1510;51.072;6.678;2023-02-22T07:15:24;5.50;99.90
3001;DHT22;1510;51.072;6.678;2023-02-22T07:17:52;5.50;99.90
3001;DHT22;1510;51.072;6.678;2023-02-22T07:20:20;5.50;99.90
3001;DHT22;1510;51.072;6.678;2023-02-22T07:22:48;5.60;99.90
3001;DHT22;1510;51.072;6.678;2023-02-22T07:25:15;5.50;99.90
3001;DHT22;1510;51.072;6.678;2023-02-22T07:27:42;5.60;99.90
3001;DHT22;1510;51.072;6.678;2023-02-22T07:30:16;5.60;99.90
3001;DHT22;1510;51.072;6.678;2023-02-22T07:32:43;5.70;99.90
3001;DHT22;1510;51.072;6.678;2023-02-22T07:35:14;5.70;99.90
3001;DHT22;1510;51.072;6.678;2023-02-22T07:37:41;5.70;99.90
3001;DHT22;1510;51.072;6.678;2023-02-22T07:40:08;5.80;99.90
3001;DHT22;1510;51.072;6.678;2023-02-22T07:42:50;5.80;99.90
3001;DHT22;1510;51.072;6.678;2023-02-22T07:45:18;5.90;99.90
3001;DHT22;1510;51.072;6.678;2023-02-22T07:47:45;5.90;99.90
3001;DHT22;1510;51.072;6.678;2023-02-22T07:50:12;6.00;99.90
3001;DHT22;1510;51.072;6.678;2023-02-22T07:52:39;6.10;99.90
3001;DHT22;1510;51.072;6.678;2023-02-22T07:55:06;6.30;99.90
3001;DHT22;1510;51.072;6.678;2023-02-22T07:57:33;6.30;99.90
3001;DHT22;1510;51.072;6.678;2023-02-22T08:00:00;6.50;99.90
3001;DHT22;1510;51.072;6.678;2023-02-22T08:02:28;6.50;99.90
3001;DHT22;1510;51.072;6.678;2023-02-22T08:04:55;6.70;99.90
3001;DHT22;1510;51.072;6.678;2023-02-22T08:07:21;6.70;99.90
3001;DHT22;1510;51.072;6.678;2023-02-22T08:09:48;6.80;99.90
3001;DHT22;1510;51.072;6.678;2023-02-22T08:12:15;6.90;99.90
3001;DHT22;1510;51.072;6.678;2023-02-22T08:14:41;7.00;99.90
3001;DHT22;1510;51.072;6.678;2023-02-22T08:17:08;7.00;99.90
3001;DHT22;1510;51.072;6.678;2023-02-22T08:19:36;7.10;99.90
3001;DHT22;1510;51.072;6.678;2023-02-22T08:22:04;7.10;99.90
3001;DHT22;1510;51.072;6.678;2023-02-22T08:24:31;7.20;99.90
3001;DHT22;1510;51.072;6.678;2023-02-22T08:26:58;7.30;99.90
3001;DHT22;1510;51.072;6.678;2023-02-22T08:29:24;7.30;99.90
3001;DHT22;1510;51.072;6.678;2023-02-22T08:31:57;7.40;99.90
3001;DHT22;1510;51.072;6.678;2023-02-22T08:34:25;7.50;99.90
3001;DHT22;1510;51.072;6.678;2023-02-22T08:36:53;7.60;99.90
3001;DHT22;1510;51.072;6.678;2023-02-22T08:39:20;7.60;99.90
3001;DHT22;1510;51.072;6.678;2023-02-22T08:41:47;7.70;99.90
3001;DHT22;1510;51.072;6.678;2023-02-22T08:44:14;7.80;99.90
3001;DHT22;1510;51.072;6.678;2023-02-22T08:46:41;7.90;99.90
3001;DHT22;1510;51.072;6.678;2023-02-22T08:49:08;8.00;99.90
3001;DHT22;1510;51.072;6.678;2023-02-22T08:51:35;8.10;99.90
3001;DHT22;1510;51.072;6.678;2023-02-22T08:54:04;8.20;99.90
3001;DHT22;1510;51.072;6.678;2023-02-22T08:56:32;8.20;99.90
3001;DHT22;1510;51.072;6.678;2023-02-22T08:58:59;8.30;99.90
3001;DHT22;1510;51.072;6.678;2023-02-22T09:01:27;8.30;99.90
3001;DHT22;1510;51.072;6.678;2023-02-22T09:03:55;8.30;99.90
3001;DHT22;1510;51.072;6.678;2023-02-22T09:06:22;8.30;99.90
3001;DHT22;1510;51.072;6.678;2023-02-22T09:08:53;8.30;99.90
3001;DHT22;1510;51.072;6.678;2023-02-22T09:11:26;8.40;99.90
3001;DHT22;1510;51.072;6.678;2023-02-22T09:13:53;8.40;99.90
3001;DHT22;1510;51.072;6.678;2023-02-22T09:16:21;8.50;99.90
3001;DHT22;1510;51.072;6.678;2023-02-22T09:18:48;8.60;99.90
3001;DHT22;1510;51.072;6.678;2023-02-22T09:21:15;8.70;99.90
3001;DHT22;1510;51.072;6.678;2023-02-22T09:23:42;8.80;99.90
3001;DHT22;1510;51.072;6.678;2023-02-22T09:26:11;8.80;99.90
3001;DHT22;1510;51.072;6.678;2023-02-22T09:28:41;9.00;99.90
3001;DHT22;1510;51.072;6.678;2023-02-22T09:31:08;9.10;99.90
3001;DHT22;1510;51.072;6.678;2023-02-22T09:33:35;9.10;99.90
3001;DHT22;1510;51.072;6.678;2023-02-22T09:36:02;9.20;99.90
3001;DHT22;1510;51.072;6.678;2023-02-22T09:38:29;9.40;99.90
3001;DHT22;1510;51.072;6.678;2023-02-22T09:41:09;9.50;99.90
3001;DHT22;1510;51.072;6.678;2023-02-22T09:43:40;9.70;99.90
3001;DHT22;1510;51.072;6.678;2023-02-22T09:46:20;9.80;99.90
3001;DHT22;1510;51.072;6.678;2023-02-22T09:48:58;10.00;99.90
3001;DHT22;1510;51.072;6.678;2023-02-22T09:51:28;10.20;99.90
3001;DHT22;1510;51.072;6.678;2023-02-22T09:54:02;10.40;99.90
3001;DHT22;1510;51.072;6.678;2023-02-22T09:56:31;10.70;99.90
3001;DHT22;1510;51.072;6.678;2023-02-22T09:59:00;11.00;99.90
3001;DHT22;1510;51.072;6.678;2023-02-22T10:01:32;11.00;99.90
3001;DHT22;1510;51.072;6.678;2023-02-22T10:04:07;11.10;99.90
3001;DHT22;1510;51.072;6.678;2023-02-22T10:06:38;11.20;99.90
3001;DHT22;1510;51.072;6.678;2023-02-22T10:09:09;11.20;99.90
3001;DHT22;1510;51.072;6.678;2023-02-22T10:11:48;11.40;99.90
3001;DHT22;1510;51.072;6.678;2023-02-22T10:17:28;12.00;99.90
3001;DHT22;1510;51.072;6.678;2023-02-22T10:20:10;12.20;99.90
3001;DHT22;1510;51.072;6.678;2023-02-22T10:22:47;12.50;99.90
3001;DHT22;1510;51.072;6.678;2023-02-22T10:25:20;12.80;99.90
3001;DHT22;1510;51.072;6.678;2023-02-22T10:27:53;13.40;99.90
3001;DHT22;1510;51.072;6.678;2023-02-22T10:30:22;13.80;99.90
3001;DHT22;1510;51.072;6.678;2023-02-22T10:32:55;14.30;99.90
3001;DHT22;1510;51.072;6.678;2023-02-22T10:35:27;14.70;99.90
3001;DHT22;1510;51.072;6.678;2023-02-22T10:37:57;15.00;99.90
3001;DHT22;1510;51.072;6.678;2023-02-22T10:40:25;15.20;99.90
3001;DHT22;1510;51.072;6.678;2023-02-22T10:43:00;15.40;99.90
3001;DHT22;1510;51.072;6.678;2023-02-22T10:45:29;15.40;99.90
3001;DHT22;1510;51.072;6.678;2023-02-22T10:48:01;15.50;99.90
3001;DHT22;1510;51.072;6.678;2023-02-22T10:50:33;15.70;99.90
3001;DHT22;1510;51.072;6.678;2023-02-22T10:53:01;16.10;99.90
3001;DHT22;1510;51.072;6.678;2023-02-22T10:55:28;16.20;99.20
3001;DHT22;1510;51.072;6.678;2023-02-22T10:58:01;16.40;99.00
3001;DHT22;1510;51.072;6.678;2023-02-22T11:00:31;16.70;98.30
3001;DHT22;1510;51.072;6.678;2023-02-22T11:03:05;16.80;96.50
3001;DHT22;1510;51.072;6.678;2023-02-22T11:05:41;17.10;96.40
3001;DHT22;1510;51.072;6.678;2023-02-22T11:08:18;17.10;95.70
3001;DHT22;1510;51.072;6.678;2023-02-22T11:10:49;17.40;94.00
3001;DHT22;1510;51.072;6.678;2023-02-22T11:13:17;17.30;93.20
3001;DHT22;1510;51.072;6.678;2023-02-22T11:15:44;17.10;93.30
3001;DHT22;1510;51.072;6.678;2023-02-22T11:18:23;17.20;92.80
3001;DHT22;1510;51.072;6.678;2023-02-22T11:20:59;17.30;93.00
3001;DHT22;1510;51.072;6.678;2023-02-22T11:23:26;17.30;92.00
3001;DHT22;1510;51.072;6.678;2023-02-22T11:26:04;17.60;91.80
3001;DHT22;1510;51.072;6.678;2023-02-22T11:28:32;17.30;91.40
3001;DHT22;1510;51.072;6.678;2023-02-22T11:31:10;17.40;91.60
3001;DHT22;1510;51.072;6.678;2023-02-22T11:33:47;17.40;91.60
3001;DHT22;1510;51.072;6.678;2023-02-22T11:36:29;17.30;91.00
3001;DHT22;1510;51.072;6.678;2023-02-22T11:38:57;17.50;91.10
3001;DHT22;1510;51.072;6.678;2023-02-22T11:41:26;17.60;91.90
3001;DHT22;1510;51.072;6.678;2023-02-22T11:43:54;17.90;89.10
3001;DHT22;1510;51.072;6.678;2023-02-22T11:46:35;18.10;89.30
3001;DHT22;1510;51.072;6.678;2023-02-22T11:49:06;18.20;86.50
3001;DHT22;1510;51.072;6.678;2023-02-22T11:51:42;18.30;85.90
3001;DHT22;1510;51.072;6.678;2023-02-22T11:54:41;18.40;84.60
3001;DHT22;1510;51.072;6.678;2023-02-22T11:57:18;18.90;82.80
3001;DHT22;1510;51.072;6.678;2023-02-22T12:00:00;19.20;81.80
3001;DHT22;1510;51.072;6.678;2023-02-22T12:02:48;19.30;78.00
3001;DHT22;1510;51.072;6.678;2023-02-22T12:05:29;19.10;78.40
3001;DHT22;1510;51.072;6.678;2023-02-22T12:08:11;19.20;77.50
3001;DHT22;1510;51.072;6.678;2023-02-22T12:10:49;19.40;77.60
3001;DHT22;1510;51.072;6.678;2023-02-22T12:13:36;19.40;74.80
3001;DHT22;1510;51.072;6.678;2023-02-22T12:16:13;19.40;74.30
3001;DHT22;1510;51.072;6.678;2023-02-22T12:18:54;19.70;74.90
3001;DHT22;1510;51.072;6.678;2023-02-22T12:21:25;20.00;74.30
3001;DHT22;1510;51.072;6.678;2023-02-22T12:23:59;19.60;69.70
3001;DHT22;1510;51.072;6.678;2023-02-22T12:26:30;19.50;69.80
3001;DHT22;1510;51.072;6.678;2023-02-22T12:29:02;19.20;71.20
3001;DHT22;1510;51.072;6.678;2023-02-22T12:31:35;18.80;72.80
3001;DHT22;1510;51.072;6.678;2023-02-22T12:34:08;19.00;74.20
3001;DHT22;1510;51.072;6.678;2023-02-22T12:36:44;19.20;72.80
3001;DHT22;1510;51.072;6.678;2023-02-22T12:39:26;19.00;69.20
3001;DHT22;1510;51.072;6.678;2023-02-22T12:42:00;19.30;72.10
3001;DHT22;1510;51.072;6.678;2023-02-22T12:44:34;19.70;69.80
3001;DHT22;1510;51.072;6.678;2023-02-22T12:47:01;19.90;69.50
3001;DHT22;1510;51.072;6.678;2023-02-22T12:49:35;19.40;66.10
3001;DHT22;1510;51.072;6.678;2023-02-22T12:52:09;19.70;67.70
3001;DHT22;1510;51.072;6.678;2023-02-22T12:54:43;19.90;68.30
3001;DHT22;1510;51.072;6.678;2023-02-22T12:57:17;19.90;68.60
3001;DHT22;1510;51.072;6.678;2023-02-22T12:59:47;20.20;67.20
3001;DHT22;1510;51.072;6.678;2023-02-22T13:02:20;20.20;66.80
3001;DHT22;1510;51.072;6.678;2023-02-22T13:04:48;20.00;67.10
3001;DHT22;1510;51.072;6.678;2023-02-22T13:07:37;19.80;66.00
3001;DHT22;1510;51.072;6.678;2023-02-22T13:10:25;19.50;66.30
3001;DHT22;1510;51.072;6.678;2023-02-22T13:13:01;19.30;69.50
3001;DHT22;1510;51.072;6.678;2023-02-22T13:15:43;19.10;70.10
3001;DHT22;1510;51.072;6.678;2023-02-22T13:18:17;18.90;69.10
3001;DHT22;1510;51.072;6.678;2023-02-22T13:20:48;18.80;69.00
3001;DHT22;1510;51.072;6.678;2023-02-22T13:23:32;18.70;72.40
3001;DHT22;1510;51.072;6.678;2023-02-22T13:26:05;18.80;71.00
3001;DHT22;1510;51.072;6.678;2023-02-22T13:28:38;19.20;69.40
3001;DHT22;1510;51.072;6.678;2023-02-22T13:31:21;19.70;68.40
3001;DHT22;1510;51.072;6.678;2023-02-22T13:34:05;19.80;67.30
3001;DHT22;1510;51.072;6.678;2023-02-22T13:36:47;20.20;66.00
3001;DHT22;1510;51.072;6.678;2023-02-22T13:39:43;20.20;62.90
3001;DHT22;1510;51.072;6.678;2023-02-22T13:42:27;20.00;64.60
3001;DHT22;1510;51.072;6.678;2023-02-22T13:45:32;19.90;65.30
3001;DHT22;1510;51.072;6.678;2023-02-22T13:48:18;19.60;67.10
3001;DHT22;1510;51.072;6.678;2023-02-22T13:51:01;19.00;67.70
3001;DHT22;1510;51.072;6.678;2023-02-22T13:53:38;18.70;68.90
3001;DHT22;1510;51.072;6.678;2023-02-22T13:56:09;18.80;69.40
3001;DHT22;1510;51.072;6.678;2023-02-22T13:58:50;18.70;70.60
3001;DHT22;1510;51.072;6.678;2023-02-22T14:01:40;18.20;70.90
3001;DHT22;1510;51.072;6.678;2023-02-22T14:04:32;17.50;73.60
3001;DHT22;1510;51.072;6.678;2023-02-22T14:07:01;17.20;72.40
3001;DHT22;1510;51.072;6.678;2023-02-22T14:09:44;16.90;74.30
3001;DHT22;1510;51.072;6.678;2023-02-22T14:15:16;16.60;77.70
3001;DHT22;1510;51.072;6.678;2023-02-22T14:17:46;16.50;77.40
3001;DHT22;1510;51.072;6.678;2023-02-22T14:20:25;16.60;79.70
3001;DHT22;1510;51.072;6.678;2023-02-22T14:23:14;16.50;79.60
3001;DHT22;1510;51.072;6.678;2023-02-22T14:25:46;16.50;82.90
3001;DHT22;1510;51.072;6.678;2023-02-22T14:28:32;16.40;82.80
3001;DHT22;1510;51.072;6.678;2023-02-22T14:31:06;16.40;82.00
3001;DHT22;1510;51.072;6.678;2023-02-22T14:34:00;16.40;82.80
3001;DHT22;1510;51.072;6.678;2023-02-22T14:36:43;16.40;85.90
3001;DHT22;1510;51.072;6.678;2023-02-22T14:39:19;16.30;82.70
3001;DHT22;1510;51.072;6.678;2023-02-22T14:42:01;16.30;83.20
3001;DHT22;1510;51.072;6.678;2023-02-22T14:44:33;16.20;85.20
3001;DHT22;1510;51.072;6.678;2023-02-22T14:47:05;16.20;85.50
3001;DHT22;1510;51.072;6.678;2023-02-22T14:49:39;16.10;85.90
3001;DHT22;1510;51.072;6.678;2023-02-22T14:52:16;16.00;86.70
3001;DHT22;1510;51.072;6.678;2023-02-22T14:54:54;15.90;86.80
3001;DHT22;1510;51.072;6.678;2023-02-22T14:57:31;15.90;87.70
3001;DHT22;1510;51.072;6.678;2023-02-22T15:00:06;15.80;90.00
3001;DHT22;1510;51.072;6.678;2023-02-22T15:02:56;15.50;90.60
3001;DHT22;1510;51.072;6.678;2023-02-22T15:05:24;15.30;91.50
3001;DHT22;1510;51.072;6.678;2023-02-22T15:07:56;15.10;92.10
3001;DHT22;1510;51.072;6.678;2023-02-22T15:10:26;14.90;93.00
3001;DHT22;1510;51.072;6.678;2023-02-22T15:12:57;14.80;93.00
3001;DHT22;1510;51.072;6.678;2023-02-22T15:15:35;14.70;92.90
3001;DHT22;1510;51.072;6.678;2023-02-22T15:18:04;14.50;94.30
3001;DHT22;1510;51.072;6.678;2023-02-22T15:20:33;14.50;94.20
3001;DHT22;1510;51.072;6.678;2023-02-22T15:23:01;14.50;95.90
3001;DHT22;1510;51.072;6.678;2023-02-22T15:25:28;14.40;95.60
3001;DHT22;1510;51.072;6.678;2023-02-22T15:28:01;14.30;96.70
3001;DHT22;1510;51.072;6.678;2023-02-22T15:30:31;14.20;96.80
3001;DHT22;1510;51.072;6.678;2023-02-22T15:33:10;14.10;96.70
3001;DHT22;1510;51.072;6.678;2023-02-22T15:35:38;14.10;96.00
3001;DHT22;1510;51.072;6.678;2023-02-22T15:38:14;14.10;96.00
3001;DHT22;1510;51.072;6.678;2023-02-22T15:40:41;14.10;95.80
3001;DHT22;1510;51.072;6.678;2023-02-22T15:43:18;14.00;96.30
3001;DHT22;1510;51.072;6.678;2023-02-22T15:45:48;14.00;95.70
3001;DHT22;1510;51.072;6.678;2023-02-22T15:48:16;13.90;96.50
3001;DHT22;1510;51.072;6.678;2023-02-22T15:51:02;13.80;96.10
3001;DHT22;1510;51.072;6.678;2023-02-22T15:53:37;13.80;96.90
3001;DHT22;1510;51.072;6.678;2023-02-22T15:56:09;13.70;97.70
3001;DHT22;1510;51.072;6.678;2023-02-22T15:58:39;13.70;97.40
3001;DHT22;1510;51.072;6.678;2023-02-22T16:01:08;13.60;99.60
3001;DHT22;1510;51.072;6.678;2023-02-22T16:03:38;13.40;99.90
3001;DHT22;1510;51.072;6.678;2023-02-22T16:06:11;13.30;99.90
3001;DHT22;1510;51.072;6.678;2023-02-22T16:08:42;13.10;99.90
3001;DHT22;1510;51.072;6.678;2023-02-22T16:11:14;12.90;99.90
3001;DHT22;1510;51.072;6.678;2023-02-22T16:13:52;12.80;99.90
3001;DHT22;1510;51.072;6.678;2023-02-22T16:16:27;12.70;99.90
3001;DHT22;1510;51.072;6.678;2023-02-22T16:19:23;12.70;99.90
3001;DHT22;1510;51.072;6.678;2023-02-22T16:21:53;12.60;99.90
3001;DHT22;1510;51.072;6.678;2023-02-22T16:24:28;12.40;99.90
3001;DHT22;1510;51.072;6.678;2023-02-22T16:27:15;12.20;99.90
3001;DHT22;1510;51.072;6.678;2023-02-22T16:30:03;12.10;99.90
3001;DHT22;1510;51.072;6.678;2023-02-22T16:32:32;12.10;99.90
3001;DHT22;1510;51.072;6.678;2023-02-22T16:35:00;12.10;99.90
3001;DHT22;1510;51.072;6.678;2023-02-22T16:37:27;12.10;99.90
3001;DHT22;1510;51.072;6.678;2023-02-22T16:39:55;12.00;99.90
3001;DHT22;1510;51.072;6.678;2023-02-22T16:42:25;11.90;99.90
3001;DHT22;1510;51.072;6.678;2023-02-22T16:44:57;11.80;99.90
3001;DHT22;1510;51.072;6.678;2023-02-22T16:47:24;11.70;99.90
3001;DHT22;1510;51.072;6.678;2023-02-22T16:49:51;11.60;99.90
3001;DHT22;1510;51.072;6.678;2023-02-22T16:52:19;11.60;99.90
3001;DHT22;1510;51.072;6.678;2023-02-22T16:54:46;11.60;99.90